Hunter M — WDE8140 — position and weather

sailwx.info

Track history (hours):
 
Tides and Currents Weather Stations Pressure Air Temp Water Temp Dewpoint Dewpoint Depression Visibility Wind Speed Wind Dir Waves Ship Positions

Hunter M

Owner: G & H Towing Company, Galveston, TX. More information available from US FCC via Universal Licensing System and Coast Guard Vessel Documentation Center.

Last reported at 2018-Jul-17 12:46 UTC. Time now 2018-Jul-22 12:50 UTC.
Position N 29°19' W 094°47'.

Length 30 m; draft 6.2 m.

Type: Tug. MMSI: 367402050.

Date/timePositionNaut miles runAvg speedWind from/ knotsBaromVisibWave heightAir tempDewpointWater temp
2018-Jul-17 12:46N 29°19' W 094°47'0 1.0
2018-Jul-17 12:30N 29°19' W 094°47'0 0.0
2018-Jul-17 11:57N 29°19' W 094°47'0 0.0
2018-Jul-17 11:30N 29°19' W 094°47'0 0.0
2018-Jul-17 11:00N 29°19' W 094°47'0 0.0
2018-Jul-17 10:27N 29°19' W 094°47'0 0.0
2018-Jul-17 09:57N 29°19' W 094°47'0 0.0
2018-Jul-17 09:30N 29°19' W 094°47'0 0.0
2018-Jul-17 08:57N 29°19' W 094°47'0 0.0
2018-Jul-17 08:24N 29°19' W 094°47'0 0.0
2018-Jul-17 07:57N 29°19' W 094°47'0 0.0
2018-Jul-17 07:27N 29°19' W 094°47'3 6.8
2018-Jul-17 07:01N 29°22' W 094°48'713.0
2018-Jul-17 06:30N 29°28' W 094°51'612.0
2018-Jul-17 06:00N 29°33' W 094°55'510.4
2018-Jul-17 05:30N 29°37' W 094°59'1 2.6
2018-Jul-17 05:00N 29°37' W 095°00'0 0.1
2018-Jul-17 04:30N 29°37' W 095°00'0 0.0
2018-Jul-17 04:00N 29°37' W 095°00'0 0.0
2018-Jul-17 03:27N 29°37' W 095°00'0 0.0
2018-Jul-17 03:00N 29°37' W 095°00'0 0.0
2018-Jul-17 02:30N 29°37' W 095°00'0 0.0
2018-Jul-17 01:53N 29°37' W 095°00'0 0.6
2018-Jul-17 01:28N 29°37' W 095°00'0 0.0
2018-Jul-17 00:58N 29°37' W 095°00'0 0.0
2018-Jul-17 00:29N 29°37' W 095°00'0 0.1
2018-Jul-16 23:26N 29°37' W 095°01'0 0.0
2018-Jul-16 22:59N 29°37' W 095°01'0 0.0
2018-Jul-16 22:29N 29°37' W 095°01'3 5.8
2018-Jul-16 22:00N 29°38' W 094°58'5 9.1
2018-Jul-16 21:28N 29°42' W 095°01'2 1.7
2018-Jul-16 20:30N 29°44' W 095°01'2 1.0
2018-Jul-16 19:01N 29°44' W 095°03'0 1.1
2018-Jul-16 19:00N 29°44' W 095°03'2 4.5
2018-Jul-16 18:29N 29°42' W 095°01'0 0.3
2018-Jul-16 18:00N 29°42' W 095°01'4 7.8
2018-Jul-16 17:30N 29°39' W 094°58'3 6.6
2018-Jul-16 17:00N 29°37' W 095°01'1 1.2
2018-Jul-16 16:30N 29°37' W 095°01'0 0.0
2018-Jul-16 16:00N 29°37' W 095°01'0 0.0
2018-Jul-16 15:30N 29°37' W 095°01'0 0.7
2018-Jul-16 14:59N 29°37' W 095°01'0 0.0
2018-Jul-16 14:29N 29°37' W 095°01'0 0.0
2018-Jul-16 13:58N 29°37' W 095°01'0 0.0
2018-Jul-16 13:28N 29°37' W 095°01'0 0.0
2018-Jul-16 12:58N 29°37' W 095°01'0 0.0
2018-Jul-16 12:28N 29°37' W 095°01'0 0.0
2018-Jul-16 11:58N 29°37' W 095°01'0 0.0
2018-Jul-16 11:28N 29°37' W 095°01'0 0.0
2018-Jul-16 10:58N 29°37' W 095°01'0 0.0
2018-Jul-16 10:28N 29°37' W 095°01'1 1.5
2018-Jul-16 10:01N 29°37' W 095°00'0 0.8
2018-Jul-16 09:31N 29°37' W 095°01'1 2.4
2018-Jul-16 09:01N 29°37' W 094°59'0 0.9
2018-Jul-16 08:28N 29°37' W 094°60'0 0.0
2018-Jul-16 07:52N 29°37' W 094°60'0 0.0
2018-Jul-16 07:25N 29°37' W 094°60'0 0.0
2018-Jul-16 06:52N 29°37' W 094°60'0 0.0
2018-Jul-16 05:34N 29°37' W 094°60'0 0.0
2018-Jul-16 05:25N 29°37' W 094°60'0 0.0
2018-Jul-16 04:34N 29°37' W 094°60'0 0.0
2018-Jul-16 04:25N 29°37' W 094°60'0 0.0
2018-Jul-16 03:46N 29°37' W 094°60'0 0.0
2018-Jul-16 03:28N 29°37' W 094°60'0 0.0
2018-Jul-16 02:55N 29°37' W 094°60'0 0.0
2018-Jul-16 02:25N 29°37' W 094°60'0 0.0
2018-Jul-16 01:55N 29°37' W 094°60'0 0.0
2018-Jul-16 01:19N 29°37' W 094°60'0 0.0
2018-Jul-16 00:43N 29°37' W 094°60'0 0.0
2018-Jul-15 23:43N 29°37' W 094°60'0 0.4
2018-Jul-15 23:30N 29°37' W 095°00'0 0.0
2018-Jul-15 23:00N 29°37' W 095°00'1 2.1
2018-Jul-15 22:29N 29°37' W 095°01'1 1.6
2018-Jul-15 22:00N 29°37' W 095°00'1 1.2
2018-Jul-15 21:28N 29°37' W 095°01'0 0.0
2018-Jul-15 20:58N 29°37' W 095°01'0 0.0
2018-Jul-15 20:28N 29°37' W 095°01'0 0.0
2018-Jul-15 19:58N 29°37' W 095°01'0 0.0
2018-Jul-15 18:47N 29°37' W 095°01'0 0.0
2018-Jul-15 18:22N 29°37' W 095°01'0 0.0
2018-Jul-15 17:47N 29°37' W 095°01'0 1.3
2018-Jul-15 17:30N 29°37' W 095°01'0 0.0
2018-Jul-15 17:00N 29°37' W 095°01'1 1.5
2018-Jul-15 16:30N 29°37' W 095°01'0 0.0
2018-Jul-15 15:38N 29°37' W 095°01'0 0.0
2018-Jul-15 15:26N 29°37' W 095°01'0 0.0
2018-Jul-15 13:06N 29°37' W 095°01'0 3.3
2018-Jul-15 13:00N 29°37' W 095°01'0 0.6
2018-Jul-15 12:30N 29°37' W 095°01'1 1.7
2018-Jul-15 12:00N 29°37' W 095°00'0 0.0
2018-Jul-15 11:30N 29°37' W 095°00'1 2.3
2018-Jul-15 11:00N 29°37' W 094°59'1 1.5
2018-Jul-15 10:30N 29°37' W 094°60'0 1.0
2018-Jul-15 10:00N 29°37' W 095°00'1 1.3
2018-Jul-15 09:29N 29°37' W 095°01'0 0.0
2018-Jul-15 08:59N 29°37' W 095°01'0 0.0
2018-Jul-15 08:29N 29°37' W 095°01'0 0.0
2018-Jul-15 07:59N 29°37' W 095°01'0 0.0
2018-Jul-15 07:29N 29°37' W 095°01'0 0.0
2018-Jul-15 06:59N 29°37' W 095°01'0 0.0
2018-Jul-15 06:29N 29°37' W 095°01'0 0.0
2018-Jul-15 05:59N 29°37' W 095°01'0 0.0
2018-Jul-15 05:29N 29°37' W 095°01'0 0.6
2018-Jul-15 05:01N 29°37' W 095°01'0 0.1
2018-Jul-15 04:27N 29°37' W 095°02'0 0.0
2018-Jul-15 04:00N 29°37' W 095°02'1 2.2
2018-Jul-15 03:30N 29°37' W 095°00'3 6.5
2018-Jul-15 03:00N 29°40' W 094°58'2 4.6
2018-Jul-15 02:30N 29°41' W 095°01'0 0.0
2018-Jul-15 02:00N 29°41' W 095°01'0 0.0
2018-Jul-15 01:27N 29°41' W 095°01'1 2.1
2018-Jul-15 01:00N 29°41' W 094°59'2 4.2
2018-Jul-15 00:30N 29°39' W 094°58'2 4.7
2018-Jul-15 00:00N 29°37' W 094°57'4 8.7
2018-Jul-14 23:30N 29°33' W 094°55'8 9.1
2018-Jul-14 22:36N 29°26' W 094°50'1 9.8
2018-Jul-14 22:28N 29°25' W 094°50'4 3.9
2018-Jul-14 21:25N 29°23' W 094°53'0 0.4
2018-Jul-14 21:00N 29°23' W 094°54'0 0.0
2018-Jul-14 20:29N 29°23' W 094°54'0 0.1
2018-Jul-14 20:00N 29°23' W 094°53'2 2.4
2018-Jul-14 19:09N 29°22' W 094°51'1 6.4
2018-Jul-14 19:00N 29°22' W 094°50'3 5.9
2018-Jul-14 18:30N 29°21' W 094°47'1 1.7
2018-Jul-14 17:50N 29°21' W 094°46'1 3.3
2018-Jul-14 17:30N 29°20' W 094°47'1 1.2
2018-Jul-14 16:50N 29°19' W 094°47'0 0.0
2018-Jul-14 16:23N 29°19' W 094°47'0 0.0
2018-Jul-14 15:53N 29°19' W 094°47'0 0.0
2018-Jul-14 15:26N 29°19' W 094°47'0 0.0
2018-Jul-14 14:59N 29°19' W 094°47'2 2.0
2018-Jul-14 14:00N 29°21' W 094°47'15 9.5
2018-Jul-14 12:25N 29°34' W 094°56'3 7.3
2018-Jul-14 11:57N 29°37' W 094°59'1 3.0
2018-Jul-14 11:31N 29°37' W 095°00'0 0.8
2018-Jul-14 11:00N 29°37' W 095°01'0 0.6
2018-Jul-14 10:30N 29°37' W 095°00'1 2.0
2018-Jul-14 10:01N 29°37' W 095°01'2 3.3
2018-Jul-14 09:30N 29°37' W 094°59'1 1.3
2018-Jul-14 08:58N 29°37' W 095°00'0 0.0
2018-Jul-14 06:58N 29°37' W 095°00'0 0.0
2018-Jul-14 04:04N 29°37' W 095°00'0 0.0
2018-Jul-14 03:54N 29°37' W 095°00'1 2.8
2018-Jul-14 03:30N 29°37' W 095°01'0 0.0
2018-Jul-14 03:01N 29°37' W 095°01'1 1.9
2018-Jul-14 02:30N 29°37' W 095°00'0 0.6
2018-Jul-14 01:55N 29°37' W 094°60'0 0.0
2018-Jul-14 01:28N 29°37' W 094°60'0 0.0
2018-Jul-14 00:58N 29°37' W 094°60'0 0.1
2018-Jul-14 00:30N 29°37' W 095°00'0 0.1
2018-Jul-14 00:00N 29°37' W 094°60'0 0.0
2018-Jul-13 23:29N 29°37' W 094°60'0 0.0
2018-Jul-13 23:00N 29°37' W 094°60'0 0.0
2018-Jul-13 22:30N 29°37' W 094°60'0 0.0
2018-Jul-13 21:58N 29°37' W 094°60'0 0.0
2018-Jul-13 21:28N 29°37' W 094°60'0 0.0
2018-Jul-13 20:58N 29°37' W 094°60'0 0.0
2018-Jul-13 20:28N 29°37' W 094°60'0 0.0
2018-Jul-13 19:55N 29°37' W 094°60'0 0.0
2018-Jul-13 19:25N 29°37' W 094°60'0 0.5
2018-Jul-13 19:00N 29°37' W 095°00'0 0.1
2018-Jul-13 18:30N 29°37' W 095°00'1 1.6
2018-Jul-13 18:00N 29°37' W 095°01'3 5.4
2018-Jul-13 17:31N 29°37' W 094°58'3 5.1
2018-Jul-13 17:00N 29°37' W 095°01'0 0.0
2018-Jul-13 16:29N 29°37' W 095°01'0 0.0
2018-Jul-13 15:59N 29°37' W 095°01'0 0.8
2018-Jul-13 15:30N 29°37' W 095°01'0 0.7
2018-Jul-13 15:00N 29°36' W 095°01'0 0.0
2018-Jul-13 14:30N 29°37' W 095°01'0 0.3
2018-Jul-13 13:28N 29°37' W 095°01'0 0.0
2018-Jul-13 12:55N 29°37' W 095°01'0 0.0
2018-Jul-13 12:28N 29°37' W 095°01'0 0.0
2018-Jul-13 11:58N 29°37' W 095°01'0 0.0
2018-Jul-13 11:29N 29°37' W 095°01'0 0.0
2018-Jul-13 10:52N 29°37' W 095°01'0 0.0
2018-Jul-13 10:28N 29°37' W 095°01'1 1.3
2018-Jul-13 09:59N 29°37' W 095°00'0 0.0
2018-Jul-13 09:30N 29°37' W 095°00'1 1.4
2018-Jul-13 09:00N 29°37' W 095°01'0 0.3
2018-Jul-13 08:30N 29°37' W 095°01'0 0.0
2018-Jul-13 08:00N 29°37' W 095°01'0 0.0
2018-Jul-13 07:30N 29°37' W 095°01'0 0.0
2018-Jul-13 07:00N 29°37' W 095°01'0 0.0
2018-Jul-13 06:30N 29°37' W 095°01'0 0.0
2018-Jul-13 06:00N 29°37' W 095°01'0 0.0
2018-Jul-13 05:30N 29°37' W 095°01'0 0.0
2018-Jul-13 05:00N 29°37' W 095°01'0 0.0
2018-Jul-13 04:30N 29°37' W 095°01'0 0.0
2018-Jul-13 04:00N 29°37' W 095°01'0 0.0
2018-Jul-13 03:30N 29°37' W 095°01'0 0.0
2018-Jul-13 03:00N 29°37' W 095°01'0 0.0
2018-Jul-13 02:30N 29°37' W 095°01'0 0.0
2018-Jul-13 01:57N 29°37' W 095°01'0 0.0
2018-Jul-13 01:30N 29°37' W 095°01'3 6.2
2018-Jul-13 01:00N 29°38' W 094°58'3 6.3
2018-Jul-13 00:30N 29°41' W 094°60'0 0.2
2018-Jul-12 23:59N 29°41' W 094°60'1 2.2
2018-Jul-12 23:30N 29°40' W 094°59'1 1.9
2018-Jul-12 23:00N 29°41' W 094°59'0 0.0
2018-Jul-12 22:26N 29°41' W 094°59'0 0.0
2018-Jul-12 21:38N 29°41' W 094°59'0 0.0
2018-Jul-12 21:23N 29°41' W 094°59'0 0.0
2018-Jul-12 20:52N 29°41' W 094°59'1 2.5
2018-Jul-12 20:30N 29°41' W 095°01'1 2.1
2018-Jul-12 19:57N 29°42' W 095°01'0 0.1
2018-Jul-12 17:29N 29°42' W 095°01'1 1.1
2018-Jul-12 16:18N 29°43' W 095°01'2 8.1
2018-Jul-12 16:00N 29°42' W 094°59'1 0.9
2018-Jul-12 14:44N 29°41' W 095°00'0 0.0
2018-Jul-12 14:21N 29°41' W 095°00'0 0.6
2018-Jul-12 13:56N 29°41' W 095°00'1 1.9
2018-Jul-12 13:30N 29°41' W 094°60'4 7.8
2018-Jul-12 12:58N 29°37' W 094°59'1 2.8
2018-Jul-12 12:29N 29°37' W 095°00'0 0.0
2018-Jul-12 11:59N 29°37' W 095°00'0 0.0
2018-Jul-12 11:17N 29°37' W 095°00'0 0.0
2018-Jul-12 10:35N 29°37' W 095°00'0 0.0
2018-Jul-12 10:29N 29°37' W 095°00'0 0.0
2018-Jul-12 10:00N 29°37' W 095°00'0 0.1
2018-Jul-12 09:30N 29°37' W 095°00'0 0.1
2018-Jul-12 09:01N 29°37' W 095°00'1 1.6
2018-Jul-12 08:30N 29°37' W 095°01'3 5.8
2018-Jul-12 08:00N 29°37' W 094°58'1 2.2
2018-Jul-12 07:29N 29°36' W 094°57'3 6.9
2018-Jul-12 07:00N 29°37' W 095°01'0 0.0
2018-Jul-12 06:25N 29°37' W 095°01'0 0.0
2018-Jul-12 05:58N 29°37' W 095°01'0 0.0
2018-Jul-12 05:28N 29°37' W 095°01'0 0.0
2018-Jul-12 04:58N 29°37' W 095°01'0 0.0
2018-Jul-12 04:28N 29°37' W 095°01'0 0.0
2018-Jul-12 03:58N 29°37' W 095°01'0 0.0
2018-Jul-12 03:28N 29°37' W 095°01'0 0.0
2018-Jul-12 02:58N 29°37' W 095°01'0 0.0
2018-Jul-12 02:28N 29°37' W 095°01'0 0.0
2018-Jul-12 01:58N 29°37' W 095°01'0 0.0
2018-Jul-12 01:28N 29°37' W 095°01'0 0.0
2018-Jul-12 00:58N 29°37' W 095°01'0 0.0
2018-Jul-12 00:28N 29°37' W 095°01'0 0.0
2018-Jul-11 23:58N 29°37' W 095°01'0 0.0
2018-Jul-11 23:28N 29°37' W 095°01'0 0.0
2018-Jul-11 22:58N 29°37' W 095°01'0 0.0
2018-Jul-11 22:28N 29°37' W 095°01'0 0.0
2018-Jul-11 21:58N 29°37' W 095°01'0 0.0
2018-Jul-11 21:28N 29°37' W 095°01'0 0.0
2018-Jul-11 20:49N 29°37' W 095°01'0 0.0
2018-Jul-11 20:28N 29°37' W 095°01'0 0.0
2018-Jul-11 19:58N 29°37' W 095°01'0 0.0
2018-Jul-11 19:28N 29°37' W 095°01'0 0.0
2018-Jul-11 18:58N 29°37' W 095°01'0 0.3
2018-Jul-11 18:30N 29°37' W 095°00'0 0.1
2018-Jul-11 18:00N 29°37' W 095°00'1 1.3
2018-Jul-11 17:30N 29°37' W 095°01'0 0.0
2018-Jul-11 16:59N 29°37' W 095°01'1 2.1
2018-Jul-11 16:30N 29°37' W 094°60'4 7.0
2018-Jul-11 16:00N 29°40' W 094°59'3 3.7
2018-Jul-11 15:10N 29°42' W 095°01'1 7.9
2018-Jul-11 15:00N 29°42' W 094°60'1 2.4
2018-Jul-11 14:29N 29°41' W 094°59'1 1.1
2018-Jul-11 13:56N 29°41' W 094°60'0 0.0
2018-Jul-11 13:23N 29°41' W 094°60'0 0.0
2018-Jul-11 12:44N 29°41' W 094°60'0 0.0
2018-Jul-11 12:23N 29°41' W 094°60'0 0.0
2018-Jul-11 11:26N 29°41' W 094°60'0 0.0
2018-Jul-11 10:47N 29°41' W 094°60'0 0.0
2018-Jul-11 10:17N 29°41' W 094°60'0 0.0
2018-Jul-11 09:59N 29°41' W 094°60'0 0.0
2018-Jul-11 09:17N 29°41' W 094°60'0 0.0
2018-Jul-11 08:59N 29°41' W 094°60'0 0.0
2018-Jul-11 08:20N 29°41' W 094°60'0 0.0
2018-Jul-11 07:59N 29°41' W 094°60'0 0.0
2018-Jul-11 07:29N 29°41' W 094°60'0 0.0
2018-Jul-11 06:56N 29°41' W 094°60'0 0.0
2018-Jul-11 06:11N 29°41' W 094°60'0 0.0
2018-Jul-11 05:56N 29°41' W 094°60'0 0.0
2018-Jul-11 05:28N 29°41' W 094°60'1 1.5
2018-Jul-11 04:58N 29°41' W 095°00'1 0.2
2018-Jul-11 01:33N 29°41' W 094°60'0 7.1
2018-Jul-11 01:30N 29°41' W 094°59'0 0.6
2018-Jul-11 00:55N 29°41' W 094°60'1 2.3
2018-Jul-11 00:30N 29°42' W 094°60'1 2.1
2018-Jul-10 23:56N 29°42' W 095°01'0 0.0
2018-Jul-10 22:56N 29°42' W 095°01'1 3.0
2018-Jul-10 22:29N 29°42' W 094°60'6 2.5
2018-Jul-10 19:58N 29°46' W 095°05'5 7.7
2018-Jul-10 19:20N 29°42' W 095°01'0 0.5
2018-Jul-10 18:54N 29°42' W 095°01'0 0.0
2018-Jul-10 18:30N 29°42' W 095°01'0 0.0
2018-Jul-10 18:00N 29°42' W 095°01'0 0.0
2018-Jul-10 17:30N 29°42' W 095°01'0 0.0
2018-Jul-10 17:00N 29°42' W 095°01'2 4.7
2018-Jul-10 16:30N 29°41' W 094°59'0 0.9
2018-Jul-10 16:01N 29°41' W 094°59'0 0.1
2018-Jul-10 15:30N 29°41' W 094°59'4 6.6
2018-Jul-10 14:52N 29°37' W 094°60'0 0.1
2018-Jul-10 14:25N 29°37' W 094°60'0 0.0
2018-Jul-10 13:58N 29°37' W 094°60'0 0.0
2018-Jul-10 13:16N 29°37' W 094°60'0 0.0
2018-Jul-10 12:55N 29°37' W 094°60'0 0.0
2018-Jul-10 11:24N 29°37' W 094°60'1 1.4
2018-Jul-10 11:00N 29°37' W 095°01'0 0.2
2018-Jul-10 10:28N 29°37' W 095°01'0 1.0
2018-Jul-10 10:00N 29°37' W 095°01'2 4.0
2018-Jul-10 09:31N 29°37' W 094°59'2 3.5
2018-Jul-10 09:00N 29°36' W 094°57'5 9.8
2018-Jul-10 08:30N 29°41' W 094°59'1 0.3
2018-Jul-10 05:19N 29°41' W 094°60'0 0.0
2018-Jul-10 04:55N 29°41' W 094°60'0 0.0
2018-Jul-10 04:31N 29°41' W 094°60'0 0.0
2018-Jul-10 04:00N 29°41' W 094°60'0 0.3
2018-Jul-10 03:30N 29°41' W 094°60'1 1.0
2018-Jul-10 02:53N 29°41' W 094°59'1 2.2
2018-Jul-10 02:30N 29°40' W 094°59'0 0.7
2018-Jul-10 02:00N 29°41' W 094°59'1 0.3
2018-Jul-09 23:19N 29°41' W 094°60'2 4.0
2018-Jul-09 22:52N 29°42' W 095°01'0 0.2
2018-Jul-09 22:29N 29°42' W 095°01'0 0.0
2018-Jul-09 21:56N 29°42' W 095°01'0 0.0
2018-Jul-09 21:11N 29°42' W 095°01'0 0.0
2018-Jul-09 20:53N 29°42' W 095°01'0 0.0
2018-Jul-09 20:29N 29°42' W 095°01'0 0.0
2018-Jul-09 19:53N 29°42' W 095°01'0 0.0
2018-Jul-09 19:29N 29°42' W 095°01'1 0.3
2018-Jul-09 17:21N 29°43' W 095°01'1 2.2
2018-Jul-09 17:00N 29°42' W 095°01'0 0.0
2018-Jul-09 16:22N 29°42' W 095°01'0 0.0
2018-Jul-09 15:55N 29°42' W 095°01'0 0.0
2018-Jul-09 15:25N 29°42' W 095°01'0 0.0
2018-Jul-09 14:55N 29°42' W 095°01'0 0.0
2018-Jul-09 14:22N 29°42' W 095°01'1 3.9
2018-Jul-09 14:00N 29°42' W 094°60'1 0.5
2018-Jul-09 12:20N 29°41' W 094°59'0 0.0
2018-Jul-09 11:50N 29°41' W 094°59'0 0.7
2018-Jul-09 11:20N 29°41' W 094°59'1 2.3
2018-Jul-09 11:00N 29°40' W 094°59'1 0.4
2018-Jul-09 09:04N 29°41' W 094°59'1 8.9
2018-Jul-09 08:59N 29°41' W 095°00'0 0.1
2018-Jul-09 08:25N 29°41' W 095°00'1 2.0
2018-Jul-09 08:01N 29°41' W 094°59'0 0.0
2018-Jul-09 00:37N 29°41' W 094°59'0 0.1
2018-Jul-09 00:25N 29°41' W 094°59'1 1.8
2018-Jul-08 23:56N 29°41' W 095°00'0 0.1
2018-Jul-08 22:31N 29°41' W 095°00'0 1.0
2018-Jul-08 22:30N 29°41' W 095°00'1 3.0
2018-Jul-08 22:00N 29°40' W 094°59'1 1.0
2018-Jul-08 21:15N 29°41' W 094°59'0 0.0
2018-Jul-08 20:59N 29°41' W 094°59'8 3.7
2018-Jul-08 18:54N 29°44' W 095°07'0 0.1
2018-Jul-08 10:58N 29°44' W 095°07'1 0.2
2018-Jul-08 06:36N 29°45' W 095°06'0 0.4
2018-Jul-08 05:53N 29°45' W 095°06'0 0.7
2018-Jul-08 05:28N 29°45' W 095°06'0 0.6
2018-Jul-08 04:56N 29°45' W 095°06'0 0.0
2018-Jul-08 03:56N 29°45' W 095°06'1 0.2
2018-Jul-07 21:03N 29°44' W 095°07'1 3.4
2018-Jul-07 20:52N 29°44' W 095°07'1 0.1
2018-Jul-07 17:11N 29°45' W 095°06'1 1.5
2018-Jul-07 16:13N 29°46' W 095°05'1 4.7
2018-Jul-07 15:56N 29°45' W 095°04'3 6.1
2018-Jul-07 15:29N 29°44' W 095°01'3 6.6
2018-Jul-07 15:00N 29°41' W 094°59'0 0.1
2018-Jul-07 13:30N 29°41' W 094°59'  
Track history (hours):
 
Tides and Currents Weather Stations Pressure Air Temp Water Temp Dewpoint Dewpoint Depression Visibility Wind Speed Wind Dir Waves Ship Positions

Hunter M

Owner: G & H Towing Company, Galveston, TX. More information available from US FCC via Universal Licensing System and Coast Guard Vessel Documentation Center.

Last reported at 2018-Jul-17 12:46 UTC. Time now 2018-Jul-22 12:50 UTC.
Position N 29°19' W 094°47'.

Length 30 m; draft 6.2 m.

Type: Tug. MMSI: 367402050.

Date/timePositionNaut miles runAvg speedWind from/ knotsBaromVisibWave heightAir tempDewpointWater temp
2018-Jul-17 12:46N 29°19' W 094°47'0 1.0
2018-Jul-17 12:30N 29°19' W 094°47'0 0.0
2018-Jul-17 11:57N 29°19' W 094°47'0 0.0
2018-Jul-17 11:30N 29°19' W 094°47'0 0.0
2018-Jul-17 11:00N 29°19' W 094°47'0 0.0
2018-Jul-17 10:27N 29°19' W 094°47'0 0.0
2018-Jul-17 09:57N 29°19' W 094°47'0 0.0
2018-Jul-17 09:30N 29°19' W 094°47'0 0.0
2018-Jul-17 08:57N 29°19' W 094°47'0 0.0
2018-Jul-17 08:24N 29°19' W 094°47'0 0.0
2018-Jul-17 07:57N 29°19' W 094°47'0 0.0
2018-Jul-17 07:27N 29°19' W 094°47'3 6.8
2018-Jul-17 07:01N 29°22' W 094°48'713.0
2018-Jul-17 06:30N 29°28' W 094°51'612.0
2018-Jul-17 06:00N 29°33' W 094°55'510.4
2018-Jul-17 05:30N 29°37' W 094°59'1 2.6
2018-Jul-17 05:00N 29°37' W 095°00'0 0.1
2018-Jul-17 04:30N 29°37' W 095°00'0 0.0
2018-Jul-17 04:00N 29°37' W 095°00'0 0.0
2018-Jul-17 03:27N 29°37' W 095°00'0 0.0
2018-Jul-17 03:00N 29°37' W 095°00'0 0.0
2018-Jul-17 02:30N 29°37' W 095°00'0 0.0
2018-Jul-17 01:53N 29°37' W 095°00'0 0.6
2018-Jul-17 01:28N 29°37' W 095°00'0 0.0
2018-Jul-17 00:58N 29°37' W 095°00'0 0.0
2018-Jul-17 00:29N 29°37' W 095°00'0 0.1
2018-Jul-16 23:26N 29°37' W 095°01'0 0.0
2018-Jul-16 22:59N 29°37' W 095°01'0 0.0
2018-Jul-16 22:29N 29°37' W 095°01'3 5.8
2018-Jul-16 22:00N 29°38' W 094°58'5 9.1
2018-Jul-16 21:28N 29°42' W 095°01'2 1.7
2018-Jul-16 20:30N 29°44' W 095°01'2 1.0
2018-Jul-16 19:01N 29°44' W 095°03'0 1.1
2018-Jul-16 19:00N 29°44' W 095°03'2 4.5
2018-Jul-16 18:29N 29°42' W 095°01'0 0.3
2018-Jul-16 18:00N 29°42' W 095°01'4 7.8
2018-Jul-16 17:30N 29°39' W 094°58'3 6.6
2018-Jul-16 17:00N 29°37' W 095°01'1 1.2
2018-Jul-16 16:30N 29°37' W 095°01'0 0.0
2018-Jul-16 16:00N 29°37' W 095°01'0 0.0
2018-Jul-16 15:30N 29°37' W 095°01'0 0.7
2018-Jul-16 14:59N 29°37' W 095°01'0 0.0
2018-Jul-16 14:29N 29°37' W 095°01'0 0.0
2018-Jul-16 13:58N 29°37' W 095°01'0 0.0
2018-Jul-16 13:28N 29°37' W 095°01'0 0.0
2018-Jul-16 12:58N 29°37' W 095°01'0 0.0
2018-Jul-16 12:28N 29°37' W 095°01'0 0.0
2018-Jul-16 11:58N 29°37' W 095°01'0 0.0
2018-Jul-16 11:28N 29°37' W 095°01'0 0.0
2018-Jul-16 10:58N 29°37' W 095°01'0 0.0
2018-Jul-16 10:28N 29°37' W 095°01'1 1.5
2018-Jul-16 10:01N 29°37' W 095°00'0 0.8
2018-Jul-16 09:31N 29°37' W 095°01'1 2.4
2018-Jul-16 09:01N 29°37' W 094°59'0 0.9
2018-Jul-16 08:28N 29°37' W 094°60'0 0.0
2018-Jul-16 07:52N 29°37' W 094°60'0 0.0
2018-Jul-16 07:25N 29°37' W 094°60'0 0.0
2018-Jul-16 06:52N 29°37' W 094°60'0 0.0
2018-Jul-16 05:34N 29°37' W 094°60'0 0.0
2018-Jul-16 05:25N 29°37' W 094°60'0 0.0
2018-Jul-16 04:34N 29°37' W 094°60'0 0.0
2018-Jul-16 04:25N 29°37' W 094°60'0 0.0
2018-Jul-16 03:46N 29°37' W 094°60'0 0.0
2018-Jul-16 03:28N 29°37' W 094°60'0 0.0
2018-Jul-16 02:55N 29°37' W 094°60'0 0.0
2018-Jul-16 02:25N 29°37' W 094°60'0 0.0
2018-Jul-16 01:55N 29°37' W 094°60'0 0.0
2018-Jul-16 01:19N 29°37' W 094°60'0 0.0
2018-Jul-16 00:43N 29°37' W 094°60'0 0.0
2018-Jul-15 23:43N 29°37' W 094°60'0 0.4
2018-Jul-15 23:30N 29°37' W 095°00'0 0.0
2018-Jul-15 23:00N 29°37' W 095°00'1 2.1
2018-Jul-15 22:29N 29°37' W 095°01'1 1.6
2018-Jul-15 22:00N 29°37' W 095°00'1 1.2
2018-Jul-15 21:28N 29°37' W 095°01'0 0.0
2018-Jul-15 20:58N 29°37' W 095°01'0 0.0
2018-Jul-15 20:28N 29°37' W 095°01'0 0.0
2018-Jul-15 19:58N 29°37' W 095°01'0 0.0
2018-Jul-15 18:47N 29°37' W 095°01'0 0.0
2018-Jul-15 18:22N 29°37' W 095°01'0 0.0
2018-Jul-15 17:47N 29°37' W 095°01'0 1.3
2018-Jul-15 17:30N 29°37' W 095°01'0 0.0
2018-Jul-15 17:00N 29°37' W 095°01'1 1.5
2018-Jul-15 16:30N 29°37' W 095°01'0 0.0
2018-Jul-15 15:38N 29°37' W 095°01'0 0.0
2018-Jul-15 15:26N 29°37' W 095°01'0 0.0
2018-Jul-15 13:06N 29°37' W 095°01'0 3.3
2018-Jul-15 13:00N 29°37' W 095°01'0 0.6
2018-Jul-15 12:30N 29°37' W 095°01'1 1.7
2018-Jul-15 12:00N 29°37' W 095°00'0 0.0
2018-Jul-15 11:30N 29°37' W 095°00'1 2.3
2018-Jul-15 11:00N 29°37' W 094°59'1 1.5
2018-Jul-15 10:30N 29°37' W 094°60'0 1.0
2018-Jul-15 10:00N 29°37' W 095°00'1 1.3
2018-Jul-15 09:29N 29°37' W 095°01'0 0.0
2018-Jul-15 08:59N 29°37' W 095°01'0 0.0
2018-Jul-15 08:29N 29°37' W 095°01'0 0.0
2018-Jul-15 07:59N 29°37' W 095°01'0 0.0
2018-Jul-15 07:29N 29°37' W 095°01'0 0.0
2018-Jul-15 06:59N 29°37' W 095°01'0 0.0
2018-Jul-15 06:29N 29°37' W 095°01'0 0.0
2018-Jul-15 05:59N 29°37' W 095°01'0 0.0
2018-Jul-15 05:29N 29°37' W 095°01'0 0.6
2018-Jul-15 05:01N 29°37' W 095°01'0 0.1
2018-Jul-15 04:27N 29°37' W 095°02'0 0.0
2018-Jul-15 04:00N 29°37' W 095°02'1 2.2
2018-Jul-15 03:30N 29°37' W 095°00'3 6.5
2018-Jul-15 03:00N 29°40' W 094°58'2 4.6
2018-Jul-15 02:30N 29°41' W 095°01'0 0.0
2018-Jul-15 02:00N 29°41' W 095°01'0 0.0
2018-Jul-15 01:27N 29°41' W 095°01'1 2.1
2018-Jul-15 01:00N 29°41' W 094°59'2 4.2
2018-Jul-15 00:30N 29°39' W 094°58'2 4.7
2018-Jul-15 00:00N 29°37' W 094°57'4 8.7
2018-Jul-14 23:30N 29°33' W 094°55'8 9.1
2018-Jul-14 22:36N 29°26' W 094°50'1 9.8
2018-Jul-14 22:28N 29°25' W 094°50'4 3.9
2018-Jul-14 21:25N 29°23' W 094°53'0 0.4
2018-Jul-14 21:00N 29°23' W 094°54'0 0.0
2018-Jul-14 20:29N 29°23' W 094°54'0 0.1
2018-Jul-14 20:00N 29°23' W 094°53'2 2.4
2018-Jul-14 19:09N 29°22' W 094°51'1 6.4
2018-Jul-14 19:00N 29°22' W 094°50'3 5.9
2018-Jul-14 18:30N 29°21' W 094°47'1 1.7
2018-Jul-14 17:50N 29°21' W 094°46'1 3.3
2018-Jul-14 17:30N 29°20' W 094°47'1 1.2
2018-Jul-14 16:50N 29°19' W 094°47'0 0.0
2018-Jul-14 16:23N 29°19' W 094°47'0 0.0
2018-Jul-14 15:53N 29°19' W 094°47'0 0.0
2018-Jul-14 15:26N 29°19' W 094°47'0 0.0
2018-Jul-14 14:59N 29°19' W 094°47'2 2.0
2018-Jul-14 14:00N 29°21' W 094°47'15 9.5
2018-Jul-14 12:25N 29°34' W 094°56'3 7.3
2018-Jul-14 11:57N 29°37' W 094°59'1 3.0
2018-Jul-14 11:31N 29°37' W 095°00'0 0.8
2018-Jul-14 11:00N 29°37' W 095°01'0 0.6
2018-Jul-14 10:30N 29°37' W 095°00'1 2.0
2018-Jul-14 10:01N 29°37' W 095°01'2 3.3
2018-Jul-14 09:30N 29°37' W 094°59'1 1.3
2018-Jul-14 08:58N 29°37' W 095°00'0 0.0
2018-Jul-14 06:58N 29°37' W 095°00'0 0.0
2018-Jul-14 04:04N 29°37' W 095°00'0 0.0
2018-Jul-14 03:54N 29°37' W 095°00'1 2.8
2018-Jul-14 03:30N 29°37' W 095°01'0 0.0
2018-Jul-14 03:01N 29°37' W 095°01'1 1.9
2018-Jul-14 02:30N 29°37' W 095°00'0 0.6
2018-Jul-14 01:55N 29°37' W 094°60'0 0.0
2018-Jul-14 01:28N 29°37' W 094°60'0 0.0
2018-Jul-14 00:58N 29°37' W 094°60'0 0.1
2018-Jul-14 00:30N 29°37' W 095°00'0 0.1
2018-Jul-14 00:00N 29°37' W 094°60'0 0.0
2018-Jul-13 23:29N 29°37' W 094°60'0 0.0
2018-Jul-13 23:00N 29°37' W 094°60'0 0.0
2018-Jul-13 22:30N 29°37' W 094°60'0 0.0
2018-Jul-13 21:58N 29°37' W 094°60'0 0.0
2018-Jul-13 21:28N 29°37' W 094°60'0 0.0
2018-Jul-13 20:58N 29°37' W 094°60'0 0.0
2018-Jul-13 20:28N 29°37' W 094°60'0 0.0
2018-Jul-13 19:55N 29°37' W 094°60'0 0.0
2018-Jul-13 19:25N 29°37' W 094°60'0 0.5
2018-Jul-13 19:00N 29°37' W 095°00'0 0.1
2018-Jul-13 18:30N 29°37' W 095°00'1 1.6
2018-Jul-13 18:00N 29°37' W 095°01'3 5.4
2018-Jul-13 17:31N 29°37' W 094°58'3 5.1
2018-Jul-13 17:00N 29°37' W 095°01'0 0.0
2018-Jul-13 16:29N 29°37' W 095°01'0 0.0
2018-Jul-13 15:59N 29°37' W 095°01'0 0.8
2018-Jul-13 15:30N 29°37' W 095°01'0 0.7
2018-Jul-13 15:00N 29°36' W 095°01'0 0.0
2018-Jul-13 14:30N 29°37' W 095°01'0 0.3
2018-Jul-13 13:28N 29°37' W 095°01'0 0.0
2018-Jul-13 12:55N 29°37' W 095°01'0 0.0
2018-Jul-13 12:28N 29°37' W 095°01'0 0.0
2018-Jul-13 11:58N 29°37' W 095°01'0 0.0
2018-Jul-13 11:29N 29°37' W 095°01'0 0.0
2018-Jul-13 10:52N 29°37' W 095°01'0 0.0
2018-Jul-13 10:28N 29°37' W 095°01'1 1.3
2018-Jul-13 09:59N 29°37' W 095°00'0 0.0
2018-Jul-13 09:30N 29°37' W 095°00'1 1.4
2018-Jul-13 09:00N 29°37' W 095°01'0 0.3
2018-Jul-13 08:30N 29°37' W 095°01'0 0.0
2018-Jul-13 08:00N 29°37' W 095°01'0 0.0
2018-Jul-13 07:30N 29°37' W 095°01'0 0.0
2018-Jul-13 07:00N 29°37' W 095°01'0 0.0
2018-Jul-13 06:30N 29°37' W 095°01'0 0.0
2018-Jul-13 06:00N 29°37' W 095°01'0 0.0
2018-Jul-13 05:30N 29°37' W 095°01'0 0.0
2018-Jul-13 05:00N 29°37' W 095°01'0 0.0
2018-Jul-13 04:30N 29°37' W 095°01'0 0.0
2018-Jul-13 04:00N 29°37' W 095°01'0 0.0
2018-Jul-13 03:30N 29°37' W 095°01'0 0.0
2018-Jul-13 03:00N 29°37' W 095°01'0 0.0
2018-Jul-13 02:30N 29°37' W 095°01'0 0.0
2018-Jul-13 01:57N 29°37' W 095°01'0 0.0
2018-Jul-13 01:30N 29°37' W 095°01'3 6.2
2018-Jul-13 01:00N 29°38' W 094°58'3 6.3
2018-Jul-13 00:30N 29°41' W 094°60'0 0.2
2018-Jul-12 23:59N 29°41' W 094°60'1 2.2
2018-Jul-12 23:30N 29°40' W 094°59'1 1.9
2018-Jul-12 23:00N 29°41' W 094°59'0 0.0
2018-Jul-12 22:26N 29°41' W 094°59'0 0.0
2018-Jul-12 21:38N 29°41' W 094°59'0 0.0
2018-Jul-12 21:23N 29°41' W 094°59'0 0.0
2018-Jul-12 20:52N 29°41' W 094°59'1 2.5
2018-Jul-12 20:30N 29°41' W 095°01'1 2.1
2018-Jul-12 19:57N 29°42' W 095°01'0 0.1
2018-Jul-12 17:29N 29°42' W 095°01'1 1.1
2018-Jul-12 16:18N 29°43' W 095°01'2 8.1
2018-Jul-12 16:00N 29°42' W 094°59'1 0.9
2018-Jul-12 14:44N 29°41' W 095°00'0 0.0
2018-Jul-12 14:21N 29°41' W 095°00'0 0.6
2018-Jul-12 13:56N 29°41' W 095°00'1 1.9
2018-Jul-12 13:30N 29°41' W 094°60'4 7.8
2018-Jul-12 12:58N 29°37' W 094°59'1 2.8
2018-Jul-12 12:29N 29°37' W 095°00'0 0.0
2018-Jul-12 11:59N 29°37' W 095°00'0 0.0
2018-Jul-12 11:17N 29°37' W 095°00'0 0.0
2018-Jul-12 10:35N 29°37' W 095°00'0 0.0
2018-Jul-12 10:29N 29°37' W 095°00'0 0.0
2018-Jul-12 10:00N 29°37' W 095°00'0 0.1
2018-Jul-12 09:30N 29°37' W 095°00'0 0.1
2018-Jul-12 09:01N 29°37' W 095°00'1 1.6
2018-Jul-12 08:30N 29°37' W 095°01'3 5.8
2018-Jul-12 08:00N 29°37' W 094°58'1 2.2
2018-Jul-12 07:29N 29°36' W 094°57'3 6.9
2018-Jul-12 07:00N 29°37' W 095°01'0 0.0
2018-Jul-12 06:25N 29°37' W 095°01'0 0.0
2018-Jul-12 05:58N 29°37' W 095°01'0 0.0
2018-Jul-12 05:28N 29°37' W 095°01'0 0.0
2018-Jul-12 04:58N 29°37' W 095°01'0 0.0
2018-Jul-12 04:28N 29°37' W 095°01'0 0.0
2018-Jul-12 03:58N 29°37' W 095°01'0 0.0
2018-Jul-12 03:28N 29°37' W 095°01'0 0.0
2018-Jul-12 02:58N 29°37' W 095°01'0 0.0
2018-Jul-12 02:28N 29°37' W 095°01'0 0.0
2018-Jul-12 01:58N 29°37' W 095°01'0 0.0
2018-Jul-12 01:28N 29°37' W 095°01'0 0.0
2018-Jul-12 00:58N 29°37' W 095°01'0 0.0
2018-Jul-12 00:28N 29°37' W 095°01'0 0.0
2018-Jul-11 23:58N 29°37' W 095°01'0 0.0
2018-Jul-11 23:28N 29°37' W 095°01'0 0.0
2018-Jul-11 22:58N 29°37' W 095°01'0 0.0
2018-Jul-11 22:28N 29°37' W 095°01'0 0.0
2018-Jul-11 21:58N 29°37' W 095°01'0 0.0
2018-Jul-11 21:28N 29°37' W 095°01'0 0.0
2018-Jul-11 20:49N 29°37' W 095°01'0 0.0
2018-Jul-11 20:28N 29°37' W 095°01'0 0.0
2018-Jul-11 19:58N 29°37' W 095°01'0 0.0
2018-Jul-11 19:28N 29°37' W 095°01'0 0.0
2018-Jul-11 18:58N 29°37' W 095°01'0 0.3
2018-Jul-11 18:30N 29°37' W 095°00'0 0.1
2018-Jul-11 18:00N 29°37' W 095°00'1 1.3
2018-Jul-11 17:30N 29°37' W 095°01'0 0.0
2018-Jul-11 16:59N 29°37' W 095°01'1 2.1
2018-Jul-11 16:30N 29°37' W 094°60'4 7.0
2018-Jul-11 16:00N 29°40' W 094°59'3 3.7
2018-Jul-11 15:10N 29°42' W 095°01'1 7.9
2018-Jul-11 15:00N 29°42' W 094°60'1 2.4
2018-Jul-11 14:29N 29°41' W 094°59'1 1.1
2018-Jul-11 13:56N 29°41' W 094°60'0 0.0
2018-Jul-11 13:23N 29°41' W 094°60'0 0.0
2018-Jul-11 12:44N 29°41' W 094°60'0 0.0
2018-Jul-11 12:23N 29°41' W 094°60'0 0.0
2018-Jul-11 11:26N 29°41' W 094°60'0 0.0
2018-Jul-11 10:47N 29°41' W 094°60'0 0.0
2018-Jul-11 10:17N 29°41' W 094°60'0 0.0
2018-Jul-11 09:59N 29°41' W 094°60'0 0.0
2018-Jul-11 09:17N 29°41' W 094°60'0 0.0
2018-Jul-11 08:59N 29°41' W 094°60'0 0.0
2018-Jul-11 08:20N 29°41' W 094°60'0 0.0
2018-Jul-11 07:59N 29°41' W 094°60'0 0.0
2018-Jul-11 07:29N 29°41' W 094°60'0 0.0
2018-Jul-11 06:56N 29°41' W 094°60'0 0.0
2018-Jul-11 06:11N 29°41' W 094°60'0 0.0
2018-Jul-11 05:56N 29°41' W 094°60'0 0.0
2018-Jul-11 05:28N 29°41' W 094°60'1 1.5
2018-Jul-11 04:58N 29°41' W 095°00'1 0.2
2018-Jul-11 01:33N 29°41' W 094°60'0 7.1
2018-Jul-11 01:30N 29°41' W 094°59'0 0.6
2018-Jul-11 00:55N 29°41' W 094°60'1 2.3
2018-Jul-11 00:30N 29°42' W 094°60'1 2.1
2018-Jul-10 23:56N 29°42' W 095°01'0 0.0
2018-Jul-10 22:56N 29°42' W 095°01'1 3.0
2018-Jul-10 22:29N 29°42' W 094°60'6 2.5
2018-Jul-10 19:58N 29°46' W 095°05'5 7.7
2018-Jul-10 19:20N 29°42' W 095°01'0 0.5
2018-Jul-10 18:54N 29°42' W 095°01'0 0.0
2018-Jul-10 18:30N 29°42' W 095°01'0 0.0
2018-Jul-10 18:00N 29°42' W 095°01'0 0.0
2018-Jul-10 17:30N 29°42' W 095°01'0 0.0
2018-Jul-10 17:00N 29°42' W 095°01'2 4.7
2018-Jul-10 16:30N 29°41' W 094°59'0 0.9
2018-Jul-10 16:01N 29°41' W 094°59'0 0.1
2018-Jul-10 15:30N 29°41' W 094°59'4 6.6
2018-Jul-10 14:52N 29°37' W 094°60'0 0.1
2018-Jul-10 14:25N 29°37' W 094°60'0 0.0
2018-Jul-10 13:58N 29°37' W 094°60'0 0.0
2018-Jul-10 13:16N 29°37' W 094°60'0 0.0
2018-Jul-10 12:55N 29°37' W 094°60'0 0.0
2018-Jul-10 11:24N 29°37' W 094°60'1 1.4
2018-Jul-10 11:00N 29°37' W 095°01'0 0.2
2018-Jul-10 10:28N 29°37' W 095°01'0 1.0
2018-Jul-10 10:00N 29°37' W 095°01'2 4.0
2018-Jul-10 09:31N 29°37' W 094°59'2 3.5
2018-Jul-10 09:00N 29°36' W 094°57'5 9.8
2018-Jul-10 08:30N 29°41' W 094°59'1 0.3
2018-Jul-10 05:19N 29°41' W 094°60'0 0.0
2018-Jul-10 04:55N 29°41' W 094°60'0 0.0
2018-Jul-10 04:31N 29°41' W 094°60'0 0.0
2018-Jul-10 04:00N 29°41' W 094°60'0 0.3
2018-Jul-10 03:30N 29°41' W 094°60'1 1.0
2018-Jul-10 02:53N 29°41' W 094°59'1 2.2
2018-Jul-10 02:30N 29°40' W 094°59'0 0.7
2018-Jul-10 02:00N 29°41' W 094°59'1 0.3
2018-Jul-09 23:19N 29°41' W 094°60'2 4.0
2018-Jul-09 22:52N 29°42' W 095°01'0 0.2
2018-Jul-09 22:29N 29°42' W 095°01'0 0.0
2018-Jul-09 21:56N 29°42' W 095°01'0 0.0
2018-Jul-09 21:11N 29°42' W 095°01'0 0.0
2018-Jul-09 20:53N 29°42' W 095°01'0 0.0
2018-Jul-09 20:29N 29°42' W 095°01'0 0.0
2018-Jul-09 19:53N 29°42' W 095°01'0 0.0
2018-Jul-09 19:29N 29°42' W 095°01'1 0.3
2018-Jul-09 17:21N 29°43' W 095°01'1 2.2
2018-Jul-09 17:00N 29°42' W 095°01'0 0.0
2018-Jul-09 16:22N 29°42' W 095°01'0 0.0
2018-Jul-09 15:55N 29°42' W 095°01'0 0.0
2018-Jul-09 15:25N 29°42' W 095°01'0 0.0
2018-Jul-09 14:55N 29°42' W 095°01'0 0.0
2018-Jul-09 14:22N 29°42' W 095°01'1 3.9
2018-Jul-09 14:00N 29°42' W 094°60'1 0.5
2018-Jul-09 12:20N 29°41' W 094°59'0 0.0
2018-Jul-09 11:50N 29°41' W 094°59'0 0.7
2018-Jul-09 11:20N 29°41' W 094°59'1 2.3
2018-Jul-09 11:00N 29°40' W 094°59'1 0.4
2018-Jul-09 09:04N 29°41' W 094°59'1 8.9
2018-Jul-09 08:59N 29°41' W 095°00'0 0.1
2018-Jul-09 08:25N 29°41' W 095°00'1 2.0
2018-Jul-09 08:01N 29°41' W 094°59'0 0.0
2018-Jul-09 00:37N 29°41' W 094°59'0 0.1
2018-Jul-09 00:25N 29°41' W 094°59'1 1.8
2018-Jul-08 23:56N 29°41' W 095°00'0 0.1
2018-Jul-08 22:31N 29°41' W 095°00'0 1.0
2018-Jul-08 22:30N 29°41' W 095°00'1 3.0
2018-Jul-08 22:00N 29°40' W 094°59'1 1.0
2018-Jul-08 21:15N 29°41' W 094°59'0 0.0
2018-Jul-08 20:59N 29°41' W 094°59'8 3.7
2018-Jul-08 18:54N 29°44' W 095°07'0 0.1
2018-Jul-08 10:58N 29°44' W 095°07'1 0.2
2018-Jul-08 06:36N 29°45' W 095°06'0 0.4
2018-Jul-08 05:53N 29°45' W 095°06'0 0.7
2018-Jul-08 05:28N 29°45' W 095°06'0 0.6
2018-Jul-08 04:56N 29°45' W 095°06'0 0.0
2018-Jul-08 03:56N 29°45' W 095°06'1 0.2
2018-Jul-07 21:03N 29°44' W 095°07'1 3.4
2018-Jul-07 20:52N 29°44' W 095°07'1 0.1
2018-Jul-07 17:11N 29°45' W 095°06'1 1.5
2018-Jul-07 16:13N 29°46' W 095°05'1 4.7
2018-Jul-07 15:56N 29°45' W 095°04'3 6.1
2018-Jul-07 15:29N 29°44' W 095°01'3 6.6
2018-Jul-07 15:00N 29°41' W 094°59'0 0.1
2018-Jul-07 13:30N 29°41' W 094°59'  

Dump ship's entire track history